Time;durP1;ratioP1;P1;durP2;ratioP2;P2;SDS_P1;SDS_P2;PMS_P1;PMS_P2;Temp;Humidity;BMP_temperature;BMP_pressure;BME280_temperature;BME280_humidity;BME280_pressure;Samples;Min_cycle;Max_cycle;Signal;HPM_P1;HPM_P2
2021/06/14 00:00:56;;;;;;;4.00;3.60;;;15.30;99.90;;;;;;4996023;28;20199;-66
2021/06/14 00:03:22;;;;;;;4.50;4.10;;;15.30;99.90;;;;;;4995816;28;20503;-66
2021/06/14 00:05:48;;;;;;;7.00;4.10;;;15.30;99.90;;;;;;4995919;28;21051;-66
2021/06/14 00:08:17;;;;;;;4.80;4.40;;;15.20;99.90;;;;;;4995860;28;20506;-65
2021/06/14 00:10:45;;;;;;;4.00;3.70;;;15.10;99.90;;;;;;4995659;28;20187;-65
2021/06/14 00:13:11;;;;;;;6.83;4.33;;;15.10;99.90;;;;;;4995698;28;20423;-66
2021/06/14 00:15:38;;;;;;;3.97;3.57;;;15.00;99.90;;;;;;4995729;28;20475;-66
2021/06/14 00:18:05;;;;;;;5.27;4.43;;;15.00;99.90;;;;;;4995718;28;20418;-65
2021/06/14 00:20:31;;;;;;;6.00;3.70;;;15.00;99.90;;;;;;4995482;28;20477;-65
2021/06/14 00:22:57;;;;;;;4.70;4.40;;;15.00;99.90;;;;;;4995527;28;21006;-65
2021/06/14 00:25:25;;;;;;;5.53;5.03;;;14.90;99.90;;;;;;5001470;28;20536;-66
2021/06/14 00:27:52;;;;;;;5.77;4.60;;;14.90;99.90;;;;;;5014977;28;20166;-65
2021/06/14 00:30:40;;;;;;;4.60;4.20;;;14.90;99.90;;;;;;5014866;28;20420;-65
2021/06/14 00:33:06;;;;;;;4.57;4.20;;;14.90;99.90;;;;;;5015130;28;20421;-66
2021/06/14 00:35:32;;;;;;;6.43;4.00;;;14.80;99.90;;;;;;5014949;28;20532;-66
2021/06/14 00:37:58;;;;;;;7.17;4.00;;;14.80;99.90;;;;;;5014906;28;20456;-65
2021/06/14 00:40:23;;;;;;;5.10;4.00;;;14.90;99.90;;;;;;5014581;28;20426;-65
2021/06/14 00:42:49;;;;;;;4.83;4.40;;;14.90;99.90;;;;;;5014989;28;20206;-66
2021/06/14 00:45:18;;;;;;;5.27;4.87;;;14.80;99.90;;;;;;5014764;28;20186;-65
2021/06/14 00:47:44;;;;;;;4.33;3.93;;;14.80;99.90;;;;;;5014722;28;20174;-65
2021/06/14 00:50:11;;;;;;;6.13;4.20;;;14.80;99.90;;;;;;5014478;28;20448;-65
2021/06/14 00:52:38;;;;;;;4.23;3.90;;;14.80;99.90;;;;;;5014587;28;20421;-65
2021/06/14 00:55:06;;;;;;;4.20;3.90;;;14.70;99.90;;;;;;5014596;28;20433;-66
2021/06/14 00:57:32;;;;;;;5.10;4.60;;;14.70;99.90;;;;;;5014853;28;20422;-65
2021/06/14 00:59:59;;;;;;;4.80;4.30;;;14.60;99.90;;;;;;5014248;28;20496;-65
2021/06/14 01:02:24;;;;;;;4.83;3.80;;;14.70;99.90;;;;;;5014412;28;20692;-65
2021/06/14 01:04:50;;;;;;;6.10;5.50;;;14.60;99.90;;;;;;5014324;28;20457;-66
2021/06/14 01:07:15;;;;;;;5.80;5.10;;;14.50;99.90;;;;;;5014328;28;20178;-65
2021/06/14 01:09:41;;;;;;;4.40;4.10;;;14.40;99.90;;;;;;5014045;28;20230;-65
2021/06/14 01:12:09;;;;;;;5.17;3.93;;;14.40;99.90;;;;;;5013033;28;20190;-66
2021/06/14 01:15:00;;;;;;;4.67;3.90;;;14.40;99.90;;;;;;5014227;28;20241;-65
2021/06/14 01:17:38;;;;;;;4.70;4.20;;;14.40;99.90;;;;;;5014236;28;20432;-65
2021/06/14 01:20:30;;;;;;;4.97;4.50;;;14.40;99.90;;;;;;5013877;28;20425;-65
2021/06/14 01:23:23;;;;;;;7.03;5.03;;;14.30;99.90;;;;;;5014147;28;20875;-66
2021/06/14 01:26:08;;;;;;;6.90;4.17;;;14.30;99.90;;;;;;5004725;28;20489;-66
2021/06/14 01:28:35;;;;;;;4.90;4.40;;;14.30;99.90;;;;;;4994250;28;20430;-65
2021/06/14 01:31:02;;;;;;;4.53;4.10;;;14.20;99.90;;;;;;4994454;28;20761;-66
2021/06/14 01:33:29;;;;;;;5.33;4.83;;;14.20;99.90;;;;;;4994188;28;20792;-66
2021/06/14 01:36:01;;;;;;;4.93;4.37;;;14.20;99.90;;;;;;4994487;28;20904;-66
2021/06/14 01:38:29;;;;;;;5.00;4.60;;;14.10;99.90;;;;;;4994074;28;20828;-65
2021/06/14 01:41:00;;;;;;;7.90;4.70;;;14.20;99.90;;;;;;4994150;28;20423;-65
2021/06/14 01:43:29;;;;;;;4.53;4.13;;;14.10;99.90;;;;;;4994101;28;20469;-66
2021/06/14 01:45:58;;;;;;;6.73;4.40;;;14.00;99.90;;;;;;4994142;28;20473;-66
2021/06/14 01:48:25;;;;;;;5.20;4.80;;;14.00;99.90;;;;;;4993971;28;20430;-66
2021/06/14 01:50:51;;;;;;;6.73;4.50;;;14.00;99.90;;;;;;4993924;28;20419;-66
2021/06/14 01:53:18;;;;;;;4.70;4.30;;;13.90;99.90;;;;;;4993808;28;20423;-66
2021/06/14 01:55:45;;;;;;;4.70;4.30;;;14.00;99.90;;;;;;4993972;28;20422;-65
2021/06/14 01:58:12;;;;;;;4.97;4.23;;;13.90;99.90;;;;;;4993787;28;20554;-66
2021/06/14 02:00:42;;;;;;;6.53;4.40;;;13.90;99.90;;;;;;4993607;28;20426;-66
2021/06/14 02:03:08;;;;;;;4.77;4.40;;;13.80;99.90;;;;;;4993206;28;20537;-66
2021/06/14 02:05:34;;;;;;;6.53;4.60;;;13.80;99.90;;;;;;4993672;28;20447;-66
2021/06/14 02:08:01;;;;;;;5.50;5.00;;;13.80;99.90;;;;;;4993634;28;20775;-66
2021/06/14 02:10:29;;;;;;;5.70;5.00;;;13.70;99.90;;;;;;4993405;28;20422;-66
2021/06/14 02:12:54;;;;;;;7.77;4.90;;;13.70;99.90;;;;;;4993655;28;20942;-66
2021/06/14 02:15:21;;;;;;;6.87;4.70;;;13.70;99.90;;;;;;4993389;28;20442;-66
2021/06/14 02:17:48;;;;;;;6.33;5.00;;;13.70;99.90;;;;;;4993525;28;20186;-66
2021/06/14 02:20:14;;;;;;;6.13;4.77;;;13.70;99.90;;;;;;4993065;28;20474;-66
2021/06/14 02:22:41;;;;;;;6.30;5.40;;;13.70;99.90;;;;;;4993345;28;20458;-66
2021/06/14 02:25:09;;;;;;;6.03;4.70;;;13.60;99.90;;;;;;4996860;28;20529;-66
2021/06/14 02:27:35;;;;;;;5.10;4.70;;;13.60;99.90;;;;;;5013052;28;20481;-66
2021/06/14 02:30:06;;;;;;;5.10;4.60;;;13.60;99.90;;;;;;5012586;28;20418;-66
2021/06/14 02:32:32;;;;;;;5.87;5.37;;;13.60;99.90;;;;;;5012879;28;20425;-66
2021/06/14 02:34:58;;;;;;;5.50;5.00;;;13.60;99.90;;;;;;5012585;28;20438;-66
2021/06/14 02:37:24;;;;;;;6.57;4.83;;;13.60;99.90;;;;;;5012807;28;20437;-66
2021/06/14 02:39:52;;;;;;;6.63;5.07;;;13.60;99.90;;;;;;5012446;28;20202;-66
2021/06/14 02:42:18;;;;;;;8.50;4.90;;;13.60;99.90;;;;;;5012655;28;20453;-66
2021/06/14 02:44:46;;;;;;;6.50;4.77;;;13.60;99.90;;;;;;5012532;28;20473;-66
2021/06/14 02:47:14;;;;;;;4.93;4.13;;;13.60;99.90;;;;;;5012764;28;20760;-66
2021/06/14 02:49:40;;;;;;;4.90;4.60;;;13.60;99.90;;;;;;5012229;28;20413;-66
2021/06/14 02:52:10;;;;;;;6.60;4.40;;;13.50;99.90;;;;;;5012592;28;20825;-66
2021/06/14 02:54:41;;;;;;;5.67;5.20;;;13.50;99.90;;;;;;5012450;28;20461;-66
2021/06/14 02:57:12;;;;;;;5.10;4.70;;;13.50;99.90;;;;;;5012539;28;20536;-66
2021/06/14 02:59:40;;;;;;;5.37;4.87;;;13.50;99.90;;;;;;5012041;28;20413;-66
2021/06/14 03:02:07;;;;;;;5.60;5.10;;;13.40;99.90;;;;;;5012283;28;20508;-66
2021/06/14 03:04:34;;;;;;;5.50;5.00;;;13.30;99.90;;;;;;5012175;28;20458;-66
2021/06/14 03:07:01;;;;;;;5.83;5.33;;;13.30;99.90;;;;;;5012321;28;20487;-66
2021/06/14 03:09:27;;;;;;;4.70;4.30;;;13.40;99.90;;;;;;5012379;28;20414;-66
2021/06/14 03:11:55;;;;;;;7.20;5.33;;;13.40;99.90;;;;;;5032050;28;20794;-66
2021/06/14 03:14:22;;;;;;;6.87;4.80;;;13.30;99.90;;;;;;5031747;28;20448;-66
2021/06/14 03:16:48;;;;;;;5.53;4.97;;;13.40;99.90;;;;;;5031413;28;20781;-66
2021/06/14 03:19:15;;;;;;;5.30;4.83;;;13.30;99.90;;;;;;5031719;28;20447;-65
2021/06/14 03:21:40;;;;;;;5.10;4.70;;;13.30;99.90;;;;;;5032047;28;20545;-65
2021/06/14 03:24:07;;;;;;;4.60;4.20;;;13.20;99.90;;;;;;5032202;28;20460;-66
2021/06/14 03:26:41;;;;;;;5.70;5.10;;;13.20;99.90;;;;;;5016239;28;20178;-66
2021/06/14 03:29:08;;;;;;;7.50;5.23;;;13.20;99.90;;;;;;5011697;28;20425;-66
2021/06/14 03:31:35;;;;;;;5.17;4.67;;;13.10;99.90;;;;;;5012127;28;20567;-66
2021/06/14 03:34:01;;;;;;;5.50;4.97;;;13.20;99.90;;;;;;5012253;28;20434;-66
2021/06/14 03:36:32;;;;;;;7.10;5.47;;;13.20;99.90;;;;;;5010837;28;20777;-66
2021/06/14 03:39:00;;;;;;;6.23;5.57;;;13.20;99.90;;;;;;5011829;28;20556;-66
2021/06/14 03:41:25;;;;;;;6.60;5.13;;;13.20;99.90;;;;;;5011917;28;20433;-66
2021/06/14 03:43:52;;;;;;;5.57;5.03;;;13.30;99.90;;;;;;5011741;28;20462;-66
2021/06/14 03:46:18;;;;;;;6.70;6.00;;;13.40;99.90;;;;;;5011941;28;20169;-66
2021/06/14 03:48:44;;;;;;;6.40;5.80;;;13.40;99.90;;;;;;5011609;28;20421;-66
2021/06/14 03:51:10;;;;;;;6.30;5.70;;;13.40;99.90;;;;;;5011887;28;20504;-66
2021/06/14 03:53:36;;;;;;;7.70;5.40;;;13.50;99.90;;;;;;5011819;28;20520;-66
2021/06/14 03:56:04;;;;;;;6.30;5.70;;;13.60;99.90;;;;;;5011849;28;20171;-66
2021/06/14 03:58:29;;;;;;;7.60;5.97;;;13.70;99.90;;;;;;5011945;28;20181;-66
2021/06/14 04:00:55;;;;;;;6.17;5.67;;;13.80;99.90;;;;;;5011801;28;20497;-66
2021/06/14 04:03:24;;;;;;;5.50;5.00;;;13.80;99.90;;;;;;5010355;28;20706;-66
2021/06/14 04:05:49;;;;;;;5.80;5.30;;;13.80;99.90;;;;;;5011746;28;20175;-67
2021/06/14 04:08:15;;;;;;;6.60;5.03;;;13.90;99.90;;;;;;5011851;28;20644;-66
2021/06/14 04:10:41;;;;;;;6.03;5.40;;;14.10;99.90;;;;;;5011460;28;20191;-66
2021/06/14 04:13:08;;;;;;;6.10;5.57;;;14.20;99.90;;;;;;5011867;28;20440;-66
2021/06/14 04:15:33;;;;;;;8.37;6.13;;;14.20;99.90;;;;;;5011638;28;20193;-66
2021/06/14 04:17:59;;;;;;;6.20;5.60;;;14.20;99.90;;;;;;5011592;28;20505;-66
2021/06/14 04:20:24;;;;;;;7.00;6.40;;;14.50;99.90;;;;;;5011386;28;20179;-66
2021/06/14 04:22:51;;;;;;;8.60;6.90;;;14.60;99.90;;;;;;5011545;28;20199;-66
2021/06/14 04:25:17;;;;;;;6.20;5.60;;;14.70;99.90;;;;;;5006241;28;20196;-66
2021/06/14 04:27:43;;;;;;;6.70;6.10;;;14.70;99.90;;;;;;4994269;28;20419;-66
2021/06/14 04:30:09;;;;;;;6.57;5.87;;;14.80;99.90;;;;;;4995377;28;20423;-66
2021/06/14 04:32:35;;;;;;;7.60;5.67;;;14.90;99.90;;;;;;4995457;28;20426;-66
2021/06/14 04:35:00;;;;;;;6.90;6.20;;;15.00;99.90;;;;;;4995354;28;20458;-66
2021/06/14 04:37:26;;;;;;;7.23;6.20;;;15.20;99.90;;;;;;4995427;28;20183;-66
2021/06/14 04:39:51;;;;;;;6.30;5.70;;;15.30;99.90;;;;;;4995010;28;20168;-66
2021/06/14 04:42:17;;;;;;;8.90;6.60;;;15.50;99.90;;;;;;4995136;28;20282;-60
2021/06/14 04:44:42;;;;;;;6.13;5.60;;;15.60;99.90;;;;;;4995216;28;20187;-63
2021/06/14 04:47:08;;;;;;;6.47;5.97;;;15.80;99.90;;;;;;4995292;28;20274;-58
2021/06/14 04:49:33;;;;;;;6.83;5.50;;;15.90;99.90;;;;;;4994961;28;20164;-62
2021/06/14 04:51:59;;;;;;;7.13;6.37;;;16.10;99.90;;;;;;4995071;28;20172;-64
2021/06/14 04:54:25;;;;;;;7.10;6.50;;;16.20;99.90;;;;;;4993772;28;20191;-59
2021/06/14 04:56:51;;;;;;;10.93;6.07;;;16.40;99.90;;;;;;4995023;28;20850;-59
2021/06/14 04:59:16;;;;;;;6.53;5.93;;;16.50;99.90;;;;;;4994665;28;20176;-62
2021/06/14 05:01:43;;;;;;;8.83;6.30;;;16.70;99.90;;;;;;4994943;28;20171;-62
2021/06/14 05:04:09;;;;;;;6.33;5.73;;;16.90;99.90;;;;;;4994780;28;20261;-62
2021/06/14 05:06:34;;;;;;;7.03;6.33;;;17.00;99.90;;;;;;4994837;28;20846;-64
2021/06/14 05:09:00;;;;;;;6.10;5.40;;;17.30;99.90;;;;;;4994487;28;20179;-59
2021/06/14 05:11:25;;;;;;;8.53;5.73;;;17.50;99.90;;;;;;4994745;28;20179;-62
2021/06/14 05:13:51;;;;;;;8.63;5.43;;;17.60;99.90;;;;;;4994607;28;20214;-63
2021/06/14 05:16:17;;;;;;;9.27;6.00;;;17.60;99.90;;;;;;4994751;28;20211;-61
2021/06/14 05:18:42;;;;;;;5.57;4.87;;;17.80;99.90;;;;;;5000948;28;20718;-62
2021/06/14 05:21:08;;;;;;;5.50;4.90;;;17.80;99.90;;;;;;5012830;28;20178;-63
2021/06/14 05:23:33;;;;;;;5.70;5.10;;;17.70;99.90;;;;;;5014418;28;20218;-62
2021/06/14 05:25:59;;;;;;;9.40;5.57;;;17.70;99.90;;;;;;5014355;28;20183;-62
2021/06/14 05:28:24;;;;;;;7.67;6.03;;;17.90;99.90;;;;;;5014046;28;20167;-67
2021/06/14 05:30:50;;;;;;;5.50;5.03;;;18.10;99.90;;;;;;5014018;28;20167;-62
2021/06/14 05:33:15;;;;;;;5.63;4.70;;;18.30;99.90;;;;;;5013901;28;20179;-62
2021/06/14 05:35:41;;;;;;;6.13;5.53;;;18.50;99.90;;;;;;5013995;28;20185;-61
2021/06/14 05:38:06;;;;;;;7.57;5.93;;;18.50;99.90;;;;;;5013524;28;20245;-61
2021/06/14 05:40:32;;;;;;;5.23;4.63;;;18.60;99.90;;;;;;5013539;28;20175;-62
2021/06/14 05:42:58;;;;;;;5.33;4.80;;;18.80;99.90;;;;;;5013680;28;20202;-62
2021/06/14 05:45:24;;;;;;;5.53;5.03;;;18.70;99.90;;;;;;5013709;28;20645;-62
2021/06/14 05:47:49;;;;;;;5.30;4.80;;;18.70;99.90;;;;;;5013683;28;20414;-60
2021/06/14 05:50:15;;;;;;;4.60;4.20;;;18.90;99.90;;;;;;5013420;28;20171;-63
2021/06/14 05:52:41;;;;;;;5.70;5.10;;;18.90;99.90;;;;;;5013647;28;20203;-63
2021/06/14 05:55:07;;;;;;;5.27;4.87;;;19.00;99.90;;;;;;5013511;28;20811;-63
2021/06/14 05:57:33;;;;;;;5.30;4.80;;;18.90;99.90;;;;;;5013601;28;20649;-63
2021/06/14 05:59:58;;;;;;;7.83;5.53;;;18.90;99.90;;;;;;5011927;28;20518;-63
2021/06/14 06:02:24;;;;;;;5.90;5.40;;;18.90;99.90;;;;;;5013396;28;20248;-63
2021/06/14 06:04:50;;;;;;;7.07;5.30;;;19.10;99.90;;;;;;5013255;28;20585;-63
2021/06/14 06:07:15;;;;;;;5.87;5.30;;;19.20;99.90;;;;;;5013284;28;20648;-63
2021/06/14 06:09:41;;;;;;;6.23;4.30;;;19.20;99.90;;;;;;5012987;28;20178;-62
2021/06/14 06:12:07;;;;;;;5.13;4.73;;;19.10;99.90;;;;;;5013432;28;20551;-63
2021/06/14 06:14:33;;;;;;;5.57;4.53;;;19.10;99.90;;;;;;5013162;28;20274;-62
2021/06/14 06:16:58;;;;;;;9.67;4.60;;;19.20;99.90;;;;;;5012196;28;20465;-63
2021/06/14 06:19:24;;;;;;;5.30;4.80;;;19.30;99.90;;;;;;5007801;28;20589;-63
2021/06/14 06:21:49;;;;;;;5.53;5.03;;;19.30;99.90;;;;;;5013093;28;20179;-62
2021/06/14 06:24:15;;;;;;;5.63;4.60;;;19.40;99.90;;;;;;4991951;28;20230;-62
2021/06/14 06:26:41;;;;;;;7.13;4.47;;;19.60;99.90;;;;;;4988619;28;20185;-63
2021/06/14 06:29:06;;;;;;;4.90;4.50;;;19.80;99.90;;;;;;5011818;28;20424;-63
2021/06/14 06:31:32;;;;;;;7.63;4.97;;;20.00;99.90;;;;;;5012917;28;20257;-63
2021/06/14 06:33:57;;;;;;;5.83;4.57;;;20.30;99.90;;;;;;5009072;28;20199;-63
2021/06/14 06:36:23;;;;;;;6.70;5.87;;;20.10;99.90;;;;;;5012721;28;20182;-63
2021/06/14 06:38:49;;;;;;;5.43;5.03;;;20.10;99.90;;;;;;5012504;28;20178;-63
2021/06/14 06:41:15;;;;;;;5.47;4.20;;;20.20;99.90;;;;;;5012499;28;20185;-63
2021/06/14 06:43:40;;;;;;;4.80;4.40;;;20.20;99.90;;;;;;5008498;28;20210;-63
2021/06/14 06:46:06;;;;;;;5.33;4.93;;;20.30;99.90;;;;;;5012865;28;20414;-63
2021/06/14 06:48:31;;;;;;;7.80;7.00;;;20.10;99.90;;;;;;5012414;28;20586;-62
2021/06/14 06:50:59;;;;;;;4.77;4.37;;;20.20;99.90;;;;;;5012515;28;20171;-63
2021/06/14 06:53:26;;;;;;;5.00;4.30;;;20.70;99.90;;;;;;5008740;28;20265;-63
2021/06/14 06:55:52;;;;;;;4.70;4.30;;;21.00;99.00;;;;;;5012415;28;20453;-63
2021/06/14 06:58:18;;;;;;;5.00;4.10;;;21.00;98.50;;;;;;5012649;28;20440;-63
2021/06/14 07:00:47;;;;;;;4.13;3.83;;;20.80;99.20;;;;;;5011188;28;20417;-63
2021/06/14 07:03:13;;;;;;;4.63;4.20;;;20.90;99.20;;;;;;4993427;28;20198;-62
2021/06/14 07:05:39;;;;;;;5.30;4.13;;;21.10;98.70;;;;;;5012307;28;20468;-63
2021/06/14 07:08:06;;;;;;;4.20;3.77;;;21.50;98.20;;;;;;5012375;28;20679;-62
2021/06/14 07:10:32;;;;;;;7.47;4.13;;;21.90;97.00;;;;;;5012063;28;20418;-62
2021/06/14 07:12:58;;;;;;;5.20;3.93;;;22.20;96.50;;;;;;5008715;28;20424;-62
2021/06/14 07:15:24;;;;;;;4.40;4.10;;;22.30;96.30;;;;;;5012378;28;20500;-62
2021/06/14 07:17:49;;;;;;;4.47;3.83;;;22.50;94.90;;;;;;5008821;28;20425;-65
2021/06/14 07:20:15;;;;;;;6.70;4.50;;;22.70;95.20;;;;;;5005959;28;20667;-62
2021/06/14 07:22:42;;;;;;;11.97;3.90;;;22.90;95.00;;;;;;5005060;28;20603;-61
2021/06/14 07:25:09;;;;;;;5.30;4.77;;;22.90;94.70;;;;;;5006511;28;20198;-63
2021/06/14 07:27:35;;;;;;;6.30;4.83;;;23.00;94.40;;;;;;5001119;28;20422;-62
2021/06/14 07:30:03;;;;;;;4.53;3.87;;;23.30;94.20;;;;;;4990448;28;20502;-63
2021/06/14 07:32:28;;;;;;;4.77;4.17;;;23.60;93.60;;;;;;4992397;28;20183;-63
2021/06/14 07:34:54;;;;;;;5.23;3.30;;;23.80;93.10;;;;;;5006783;28;20831;-63
2021/06/14 07:37:19;;;;;;;8.50;4.47;;;24.10;92.70;;;;;;5012048;28;20637;-63
2021/06/14 07:39:45;;;;;;;5.03;4.33;;;24.20;92.60;;;;;;5010774;28;20171;-63
2021/06/14 07:42:11;;;;;;;5.10;4.27;;;24.20;91.80;;;;;;5011739;28;20327;-63
2021/06/14 07:44:37;;;;;;;4.37;4.07;;;24.20;91.70;;;;;;5009105;28;20454;-63
2021/06/14 07:47:03;;;;;;;6.83;4.30;;;24.30;91.20;;;;;;5012123;28;20175;-63
2021/06/14 07:49:28;;;;;;;3.70;3.40;;;24.00;91.10;;;;;;5011565;28;20171;-63
2021/06/14 07:51:54;;;;;;;5.17;4.17;;;24.00;91.10;;;;;;5011891;28;20496;-62
2021/06/14 07:54:19;;;;;;;5.00;4.20;;;24.20;91.00;;;;;;5009057;28;20261;-63
2021/06/14 07:56:47;;;;;;;6.23;4.60;;;24.50;90.70;;;;;;5011904;28;20178;-63
2021/06/14 07:59:13;;;;;;;16.20;14.63;;;24.80;88.70;;;;;;5011622;28;20541;-63
2021/06/14 08:01:39;;;;;;;5.83;4.67;;;24.90;88.80;;;;;;5013010;28;20425;-63
2021/06/14 08:04:04;;;;;;;7.20;5.83;;;24.80;89.40;;;;;;5012449;28;21050;-63
2021/06/14 08:06:30;;;;;;;7.33;5.43;;;24.80;87.70;;;;;;5014296;28;20556;-63
2021/06/14 08:08:56;;;;;;;6.60;6.00;;;24.90;85.50;;;;;;5015357;28;20193;-63
2021/06/14 08:11:22;;;;;;;4.43;4.03;;;25.00;85.00;;;;;;5015886;28;20199;-63
2021/06/14 08:13:49;;;;;;;3.93;3.63;;;25.10;84.30;;;;;;5012685;28;20862;-63
2021/06/14 08:16:14;;;;;;;8.90;5.70;;;24.90;83.80;;;;;;5015491;28;20430;-63
2021/06/14 08:18:49;;;;;;;5.60;5.10;;;24.80;85.50;;;;;;5015066;28;20435;-63
2021/06/14 08:26:48;;;;;;;5.90;4.67;;;25.30;82.10;;;;;;4993164;28;20985;-64
2021/06/14 08:29:14;;;;;;;3.87;3.47;;;25.40;80.90;;;;;;5004434;28;20426;-63
2021/06/14 08:31:41;;;;;;;5.87;4.20;;;25.50;83.10;;;;;;4995516;28;20179;-64
2021/06/14 08:34:09;;;;;;;7.40;4.90;;;25.60;80.30;;;;;;5007102;28;20935;-63
2021/06/14 08:36:35;;;;;;;9.03;6.73;;;25.70;79.60;;;;;;5015050;28;20425;-63
2021/06/14 08:39:01;;;;;;;7.27;5.10;;;25.80;79.50;;;;;;5014629;28;20771;-63
2021/06/14 08:41:26;;;;;;;5.20;4.23;;;25.70;78.90;;;;;;5014979;28;20183;-63
2021/06/14 08:43:56;;;;;;;4.63;4.00;;;25.70;78.40;;;;;;5011824;28;20465;-62
2021/06/14 08:46:22;;;;;;;4.20;3.90;;;25.50;76.90;;;;;;5014871;28;20175;-62
2021/06/14 08:48:50;;;;;;;4.40;4.00;;;25.80;78.00;;;;;;5014494;28;20454;-64
2021/06/14 08:51:15;;;;;;;4.50;4.10;;;25.80;77.00;;;;;;5014646;28;20496;-61
2021/06/14 08:53:41;;;;;;;6.23;3.23;;;25.90;76.90;;;;;;5002928;28;20458;-61
2021/06/14 08:56:07;;;;;;;6.53;3.97;;;26.20;78.20;;;;;;5014563;28;20257;-61
2021/06/14 08:58:33;;;;;;;4.27;3.87;;;26.50;77.10;;;;;;5014545;28;20343;-62
2021/06/14 09:00:59;;;;;;;5.40;4.20;;;26.50;74.10;;;;;;5014575;28;20182;-64
2021/06/14 09:03:26;;;;;;;5.33;3.90;;;26.80;72.00;;;;;;5011694;28;20477;-63
2021/06/14 09:05:52;;;;;;;4.30;2.77;;;27.10;71.60;;;;;;5014470;28;20533;-64
2021/06/14 09:08:22;;;;;;;5.03;3.67;;;27.00;70.30;;;;;;5014268;28;20438;-62
2021/06/14 09:10:48;;;;;;;5.13;3.60;;;26.90;70.80;;;;;;5014213;28;20618;-62
2021/06/14 09:13:25;;;;;;;4.33;3.57;;;26.60;71.40;;;;;;5010551;28;20441;-62
2021/06/14 09:16:10;;;;;;;5.43;4.07;;;26.70;70.30;;;;;;4994917;28;20171;-61
2021/06/14 09:18:38;;;;;;;5.93;3.57;;;26.90;69.30;;;;;;4994385;28;20940;-64
2021/06/14 09:21:03;;;;;;;4.97;4.27;;;27.20;70.60;;;;;;4993097;28;20426;-63
2021/06/14 09:23:47;;;;;;;5.03;3.90;;;27.50;69.40;;;;;;4998320;28;20527;-63
2021/06/14 09:26:39;;;;;;;5.40;4.47;;;27.30;68.80;;;;;;5014210;28;20658;-64
2021/06/14 09:29:09;;;;;;;3.73;3.43;;;27.00;68.20;;;;;;5013953;28;20418;-61
2021/06/14 09:31:39;;;;;;;3.63;3.33;;;27.00;70.00;;;;;;5013998;28;20429;-62
2021/06/14 09:34:04;;;;;;;3.83;3.53;;;27.50;68.50;;;;;;5011054;28;20441;-62
2021/06/14 09:36:30;;;;;;;3.90;3.40;;;27.60;66.90;;;;;;5013938;28;20475;-62
2021/06/14 09:39:18;;;;;;;4.57;3.43;;;27.70;68.70;;;;;;5014024;28;20182;-62
2021/06/14 09:41:51;;;;;;;4.87;4.27;;;27.20;68.60;;;;;;5013859;28;20791;-62
2021/06/14 09:44:31;;;;;;;6.87;4.60;;;27.50;67.50;;;;;;5010844;28;20548;-62
2021/06/14 09:47:06;;;;;;;4.97;3.27;;;27.90;67.50;;;;;;5013748;28;20429;-62
2021/06/14 09:49:32;;;;;;;4.13;3.73;;;28.00;66.60;;;;;;5013381;28;20425;-62
2021/06/14 09:51:58;;;;;;;5.93;3.43;;;28.20;62.20;;;;;;5013610;28;20488;-61
2021/06/14 09:54:26;;;;;;;3.60;3.30;;;28.30;62.50;;;;;;5010642;28;20485;-61
2021/06/14 09:56:53;;;;;;;5.50;3.57;;;29.10;62.20;;;;;;5013656;28;20501;-62
2021/06/14 09:59:28;;;;;;;8.90;3.33;;;29.30;60.40;;;;;;5013252;28;20433;-61
2021/06/14 10:02:04;;;;;;;3.43;3.13;;;29.60;59.30;;;;;;5013650;28;20426;-62
2021/06/14 10:04:31;;;;;;;4.53;4.13;;;30.00;59.40;;;;;;5010597;28;20473;-62
2021/06/14 10:06:58;;;;;;;5.37;4.30;;;29.70;58.20;;;;;;5010722;28;20512;-62
2021/06/14 10:09:24;;;;;;;4.57;3.93;;;30.20;57.50;;;;;;5012700;28;20936;-62
2021/06/14 10:11:50;;;;;;;3.80;3.17;;;31.20;58.00;;;;;;5013379;28;20414;-62
2021/06/14 10:14:21;;;;;;;4.90;3.10;;;32.30;56.00;;;;;;5010305;28;20206;-62
2021/06/14 10:16:49;;;;;;;5.50;3.33;;;32.50;52.30;;;;;;5013229;28;20179;-62
2021/06/14 10:19:17;;;;;;;3.57;3.20;;;32.50;51.30;;;;;;5012752;28;20418;-61
2021/06/14 10:21:50;;;;;;;8.10;4.00;;;33.20;49.60;;;;;;5012694;28;20480;-62
2021/06/14 10:24:18;;;;;;;4.37;3.73;;;33.10;50.30;;;;;;5002675;28;20462;-62
2021/06/14 10:26:46;;;;;;;5.30;3.37;;;32.50;50.70;;;;;;5011731;28;20430;-62
2021/06/14 10:29:14;;;;;;;4.30;3.10;;;32.50;50.50;;;;;;5011056;28;20410;-62
2021/06/14 10:31:45;;;;;;;3.43;3.13;;;32.80;49.80;;;;;;5013034;28;20525;-62
2021/06/14 10:34:12;;;;;;;3.63;3.33;;;33.60;48.10;;;;;;5009997;28;20449;-62
2021/06/14 10:36:42;;;;;;;3.00;2.73;;;33.90;46.60;;;;;;5009722;28;20581;-62
2021/06/14 10:39:09;;;;;;;5.97;3.43;;;34.60;45.70;;;;;;5011190;28;20433;-61
2021/06/14 10:41:35;;;;;;;4.10;3.70;;;34.90;45.20;;;;;;5012832;28;20508;-62
2021/06/14 10:44:04;;;;;;;4.60;3.00;;;34.20;45.80;;;;;;5009793;28;20620;-61
2021/06/14 10:46:30;;;;;;;3.20;2.80;;;35.70;44.20;;;;;;5010366;28;20199;-62
2021/06/14 10:49:00;;;;;;;4.50;3.37;;;35.40;44.10;;;;;;5012030;28;21005;-61
2021/06/14 10:51:26;;;;;;;3.33;3.03;;;35.10;44.00;;;;;;5012224;28;20257;-60
2021/06/14 10:54:02;;;;;;;3.83;3.30;;;35.60;43.10;;;;;;5007279;28;20446;-61
2021/06/14 10:56:28;;;;;;;3.40;3.10;;;36.30;42.60;;;;;;5010110;28;20429;-61
2021/06/14 10:58:59;;;;;;;3.47;3.17;;;37.00;41.80;;;;;;5011567;28;20488;-61
2021/06/14 11:01:39;;;;;;;3.50;2.80;;;37.10;41.70;;;;;;5010630;28;20616;-62
2021/06/14 11:04:07;;;;;;;7.30;3.37;;;37.30;41.50;;;;;;5007763;28;20481;-62
2021/06/14 11:06:37;;;;;;;3.37;2.90;;;36.50;41.80;;;;;;5011924;28;20708;-62
2021/06/14 11:09:09;;;;;;;4.37;3.40;;;37.30;41.10;;;;;;5012065;28;20915;-62
2021/06/14 11:11:47;;;;;;;4.23;3.13;;;37.30;40.40;;;;;;5010971;28;20450;-59
2021/06/14 11:14:15;;;;;;;4.00;3.30;;;37.40;40.90;;;;;;5009393;28;21006;-60
2021/06/14 11:16:41;;;;;;;3.47;3.17;;;38.20;40.30;;;;;;5012417;28;20922;-58
2021/06/14 11:19:10;;;;;;;3.80;2.90;;;36.70;39.80;;;;;;5012371;28;20839;-62
2021/06/14 11:21:36;;;;;;;3.90;3.50;;;37.40;40.60;;;;;;5012101;28;20426;-62
2021/06/14 11:24:10;;;;;;;3.40;2.87;;;37.00;40.10;;;;;;5007937;28;20558;-61
2021/06/14 11:26:37;;;;;;;3.17;3.00;;;36.60;41.80;;;;;;5012255;28;20185;-60
2021/06/14 11:29:18;;;;;;;5.53;3.03;;;37.40;39.90;;;;;;5011911;28;20424;-62
2021/06/14 11:32:02;;;;;;;3.20;3.00;;;38.10;38.30;;;;;;5012258;28;20939;-62
2021/06/14 11:34:40;;;;;;;3.30;3.00;;;38.50;37.80;;;;;;5009198;28;20845;-62
2021/06/14 11:37:07;;;;;;;7.87;3.17;;;38.50;37.50;;;;;;5014475;28;20856;-62
2021/06/14 11:39:33;;;;;;;3.20;3.00;;;39.20;37.60;;;;;;5015991;28;20927;-63
2021/06/14 11:42:09;;;;;;;3.37;3.07;;;40.90;36.40;;;;;;5016163;28;20484;-63
2021/06/14 11:44:34;;;;;;;4.37;3.50;;;39.10;36.60;;;;;;5013194;28;20528;-62
2021/06/14 11:47:18;;;;;;;6.13;3.30;;;38.80;36.30;;;;;;5016006;28;20839;-62
2021/06/14 11:49:45;;;;;;;3.00;2.80;;;38.20;36.30;;;;;;5015828;28;20513;-62
2021/06/14 11:52:35;;;;;;;3.80;3.07;;;38.40;36.60;;;;;;5016076;28;20421;-62
2021/06/14 11:55:10;;;;;;;3.23;2.87;;;40.20;35.80;;;;;;5013117;28;20437;-63
2021/06/14 11:57:44;;;;;;;3.47;3.17;;;39.10;36.30;;;;;;5015901;28;20397;-63
2021/06/14 12:00:23;;;;;;;3.00;2.50;;;39.50;35.80;;;;;;5015516;28;20413;-62
2021/06/14 12:02:49;;;;;;;3.30;2.50;;;37.80;36.70;;;;;;5014108;28;20453;-62
2021/06/14 12:05:14;;;;;;;5.80;4.90;;;39.70;35.20;;;;;;5014208;28;20457;-62
2021/06/14 12:07:41;;;;;;;3.73;2.80;;;39.30;35.20;;;;;;5015665;28;20171;-61
2021/06/14 12:10:13;;;;;;;9.97;3.93;;;39.60;35.20;;;;;;5015377;28;20593;-62
2021/06/14 12:12:39;;;;;;;3.80;3.50;;;40.70;34.80;;;;;;5015664;28;20417;-62
2021/06/14 12:15:07;;;;;;;5.13;3.13;;;41.70;33.90;;;;;;5012849;28;20437;-62
2021/06/14 12:17:36;;;;;;;3.60;3.30;;;42.20;32.70;;;;;;5015496;28;20934;-63
2021/06/14 12:20:04;;;;;;;3.40;3.10;;;42.70;32.10;;;;;;5015119;28;20422;-62
2021/06/14 12:22:30;;;;;;;3.70;3.23;;;42.70;32.10;;;;;;5015253;28;20808;-62
2021/06/14 12:25:04;;;;;;;3.10;2.70;;;42.10;31.70;;;;;;5012530;28;20939;-63
2021/06/14 12:27:30;;;;;;;3.20;3.00;;;41.00;31.70;;;;;;5015388;28;20428;-63
2021/06/14 12:30:01;;;;;;;3.90;2.60;;;42.40;31.70;;;;;;5014972;28;20413;-63
2021/06/14 12:32:29;;;;;;;3.13;2.83;;;43.70;29.10;;;;;;5015156;28;20546;-63
2021/06/14 12:35:03;;;;;;;4.83;2.93;;;44.80;28.70;;;;;;5012299;28;20440;-63
2021/06/14 12:37:28;;;;;;;2.97;2.67;;;45.10;28.30;;;;;;5015090;28;21005;-62
2021/06/14 12:40:11;;;;;;;3.33;3.13;;;43.40;28.10;;;;;;5014842;28;20501;-62
2021/06/14 12:42:38;;;;;;;2.87;2.57;;;41.00;29.60;;;;;;5015071;28;20203;-62
2021/06/14 12:45:10;;;;;;;2.37;2.17;;;41.30;28.60;;;;;;5012104;28;20495;-62
2021/06/14 12:47:44;;;;;;;2.70;2.50;;;41.50;28.10;;;;;;5014541;28;20410;-62
2021/06/14 12:50:31;;;;;;;3.00;2.80;;;42.40;28.20;;;;;;5014601;28;20442;-62
2021/06/14 12:52:59;;;;;;;3.73;3.20;;;43.00;27.90;;;;;;5012568;28;20430;-62
2021/06/14 12:55:29;;;;;;;3.27;3.00;;;44.20;28.00;;;;;;5010753;28;20856;-63